Etusivu
METAR-TAF:

METAR-TAF

Lentoasemat :

Kosrae, Mikronesia

Leveyspiiri: 05-21N, Pituuspiiri: 162-57E, korkeus merenpinnasta: 3 m

METAR: puuttuu

Aika: 04:53 (17:53 UTC)

Sääennuste

Tämä raportti tehtiin 18 tuntia ja 32 minuuttia sitten, kello 23.21 UTC
Ennuste voimassa 18. päivästä klo 00 UTC - 18. päivään klo 24 UTC
Tuuli 10 kn koillisesta
Näkyvyys: 10 km
Hajanaisia pilviä 1900 ft:n korkeudessa
Hajanaisia pilviä 13000 ft:n korkeudessa
sadekuuroja näköpiirissä

TAF: PTSA 172321Z 1800/1824 05010KT P6SM VCSH SCT019 SCT130

Säähavainnot ja -ennusteet yli 4000 lentoasemalta (METAR- ja TAF-raportit).

Käytössä olevat sääasemat on merkitty karttaan keltaisilla ja punaisilla pisteillä.

Aseta hiiri pisteen päälle nähdäksesi sääaseman nimen.

Klikkaa sitten nähdäksesi säähavainnot ja -ennusteet.

Kartan vaihtaminen: klikkaa mustalla rastilla varustettuja vihreitä pisteitä, niin voit zoomata sisään; viivalla varustettua vihreää pistettä, niin voit zoomata ulos tai vihreitä nuolia, niin pääset viereisille kartoille.


METAR-TAF: